sensor_id;sensor_type;location;lat;lon;timestamp;pressure;altitude;pressure_sealevel;temperature;humidity
53960;BME280;39866;48.638;-2.020;2024-02-21T00:01:03;102214.72;;;15.63;100.00
53960;BME280;39866;48.638;-2.020;2024-02-21T00:03:29;102209.44;;;15.60;100.00
53960;BME280;39866;48.638;-2.020;2024-02-21T00:05:54;102186.31;;;15.54;100.00
53960;BME280;39866;48.638;-2.020;2024-02-21T00:08:19;102176.69;;;15.47;100.00
53960;BME280;39866;48.638;-2.020;2024-02-21T00:10:45;102186.28;;;15.56;100.00
53960;BME280;39866;48.638;-2.020;2024-02-21T00:13:10;102175.66;;;15.51;100.00
53960;BME280;39866;48.638;-2.020;2024-02-21T00:15:35;102173.56;;;15.63;100.00
53960;BME280;39866;48.638;-2.020;2024-02-21T00:18:01;102158.28;;;15.66;100.00
53960;BME280;39866;48.638;-2.020;2024-02-21T00:20:26;102154.97;;;15.55;100.00
53960;BME280;39866;48.638;-2.020;2024-02-21T00:22:51;102154.00;;;15.57;100.00
53960;BME280;39866;48.638;-2.020;2024-02-21T00:25:17;102148.53;;;15.62;100.00
53960;BME280;39866;48.638;-2.020;2024-02-21T00:27:43;102145.78;;;15.65;100.00
53960;BME280;39866;48.638;-2.020;2024-02-21T00:30:08;102131.88;;;15.49;100.00
53960;BME280;39866;48.638;-2.020;2024-02-21T00:32:34;102129.25;;;15.48;100.00
53960;BME280;39866;48.638;-2.020;2024-02-21T00:35:00;102116.44;;;15.57;100.00
53960;BME280;39866;48.638;-2.020;2024-02-21T00:37:26;102122.69;;;15.58;100.00
53960;BME280;39866;48.638;-2.020;2024-02-21T00:39:51;102102.84;;;15.64;100.00
53960;BME280;39866;48.638;-2.020;2024-02-21T00:42:18;102101.47;;;15.49;100.00
53960;BME280;39866;48.638;-2.020;2024-02-21T00:44:43;102111.00;;;15.59;100.00
53960;BME280;39866;48.638;-2.020;2024-02-21T00:47:10;102095.88;;;15.56;100.00
53960;BME280;39866;48.638;-2.020;2024-02-21T00:49:35;102096.91;;;15.51;100.00
53960;BME280;39866;48.638;-2.020;2024-02-21T00:52:00;102099.66;;;15.49;100.00
53960;BME280;39866;48.638;-2.020;2024-02-21T00:54:26;102096.84;;;15.54;100.00
53960;BME280;39866;48.638;-2.020;2024-02-21T00:56:51;102089.53;;;15.59;100.00
53960;BME280;39866;48.638;-2.020;2024-02-21T00:59:16;102073.34;;;15.62;100.00
53960;BME280;39866;48.638;-2.020;2024-02-21T01:01:41;102061.81;;;15.58;100.00
53960;BME280;39866;48.638;-2.020;2024-02-21T01:04:08;102062.94;;;15.51;100.00
53960;BME280;39866;48.638;-2.020;2024-02-21T01:06:34;102060.31;;;15.48;100.00
53960;BME280;39866;48.638;-2.020;2024-02-21T01:08:59;102058.31;;;15.55;100.00
53960;BME280;39866;48.638;-2.020;2024-02-21T01:11:24;102064.34;;;15.63;100.00
53960;BME280;39866;48.638;-2.020;2024-02-21T01:13:49;102064.38;;;15.65;100.00
53960;BME280;39866;48.638;-2.020;2024-02-21T01:16:15;102060.78;;;15.64;100.00
53960;BME280;39866;48.638;-2.020;2024-02-21T01:18:40;102063.44;;;15.66;100.00
53960;BME280;39866;48.638;-2.020;2024-02-21T01:21:07;102055.31;;;15.67;100.00
53960;BME280;39866;48.638;-2.020;2024-02-21T01:23:35;102058.91;;;15.68;100.00
53960;BME280;39866;48.638;-2.020;2024-02-21T01:26:01;102046.31;;;15.70;100.00
53960;BME280;39866;48.638;-2.020;2024-02-21T01:28:27;102054.28;;;15.73;100.00
53960;BME280;39866;48.638;-2.020;2024-02-21T01:30:52;102057.00;;;15.71;100.00
53960;BME280;39866;48.638;-2.020;2024-02-21T01:33:17;102043.81;;;15.62;100.00
53960;BME280;39866;48.638;-2.020;2024-02-21T01:35:44;102043.78;;;15.64;100.00
53960;BME280;39866;48.638;-2.020;2024-02-21T01:38:09;102038.13;;;15.74;100.00
53960;BME280;39866;48.638;-2.020;2024-02-21T01:40:35;102037.38;;;15.69;100.00
53960;BME280;39866;48.638;-2.020;2024-02-21T01:43:02;102029.19;;;15.74;100.00
53960;BME280;39866;48.638;-2.020;2024-02-21T01:45:27;102007.78;;;15.71;100.00
53960;BME280;39866;48.638;-2.020;2024-02-21T01:47:53;102012.28;;;15.70;100.00
53960;BME280;39866;48.638;-2.020;2024-02-21T01:50:18;102000.13;;;15.57;100.00
53960;BME280;39866;48.638;-2.020;2024-02-21T01:52:46;101997.09;;;15.69;100.00
53960;BME280;39866;48.638;-2.020;2024-02-21T01:55:13;101996.22;;;15.69;100.00
53960;BME280;39866;48.638;-2.020;2024-02-21T01:57:41;101981.09;;;15.66;100.00
53960;BME280;39866;48.638;-2.020;2024-02-21T02:00:09;101971.31;;;15.64;100.00
53960;BME280;39866;48.638;-2.020;2024-02-21T02:02:35;101961.66;;;15.56;100.00
53960;BME280;39866;48.638;-2.020;2024-02-21T02:05:01;101972.44;;;15.55;100.00
53960;BME280;39866;48.638;-2.020;2024-02-21T02:07:26;101958.84;;;15.61;100.00
53960;BME280;39866;48.638;-2.020;2024-02-21T02:09:52;101950.72;;;15.63;100.00
53960;BME280;39866;48.638;-2.020;2024-02-21T02:12:17;101950.31;;;15.47;100.00
53960;BME280;39866;48.638;-2.020;2024-02-21T02:14:42;101933.31;;;15.48;100.00
53960;BME280;39866;48.638;-2.020;2024-02-21T02:17:07;101925.03;;;15.55;100.00
53960;BME280;39866;48.638;-2.020;2024-02-21T02:19:34;101924.22;;;15.52;100.00
53960;BME280;39866;48.638;-2.020;2024-02-21T02:22:07;101919.44;;;15.61;100.00
53960;BME280;39866;48.638;-2.020;2024-02-21T02:24:34;101916.72;;;15.63;100.00
53960;BME280;39866;48.638;-2.020;2024-02-21T02:27:00;101916.47;;;15.72;100.00
53960;BME280;39866;48.638;-2.020;2024-02-21T02:29:25;101897.91;;;15.63;100.00
53960;BME280;39866;48.638;-2.020;2024-02-21T02:31:51;101901.41;;;15.67;100.00
53960;BME280;39866;48.638;-2.020;2024-02-21T02:34:16;101893.22;;;15.71;100.00
53960;BME280;39866;48.638;-2.020;2024-02-21T02:36:41;101888.00;;;15.67;100.00
53960;BME280;39866;48.638;-2.020;2024-02-21T02:39:06;101896.94;;;15.67;100.00
53960;BME280;39866;48.638;-2.020;2024-02-21T02:41:35;101894.59;;;15.55;100.00
53960;BME280;39866;48.638;-2.020;2024-02-21T02:44:00;101888.94;;;15.66;100.00
53960;BME280;39866;48.638;-2.020;2024-02-21T02:46:26;101895.91;;;15.71;100.00
53960;BME280;39866;48.638;-2.020;2024-02-21T02:48:51;101890.44;;;15.74;100.00
53960;BME280;39866;48.638;-2.020;2024-02-21T02:51:16;101886.06;;;15.72;100.00
53960;BME280;39866;48.638;-2.020;2024-02-21T02:53:42;101872.59;;;15.73;100.00
53960;BME280;39866;48.638;-2.020;2024-02-21T02:56:07;101866.50;;;15.68;100.00
53960;BME280;39866;48.638;-2.020;2024-02-21T02:58:32;101861.94;;;15.70;100.00
53960;BME280;39866;48.638;-2.020;2024-02-21T03:00:58;101866.91;;;15.82;100.00
53960;BME280;39866;48.638;-2.020;2024-02-21T03:03:23;101856.56;;;15.70;100.00
53960;BME280;39866;48.638;-2.020;2024-02-21T03:05:48;101852.56;;;15.55;100.00
53960;BME280;39866;48.638;-2.020;2024-02-21T03:08:13;101839.66;;;15.68;100.00
53960;BME280;39866;48.638;-2.020;2024-02-21T03:10:39;101837.84;;;15.69;100.00
53960;BME280;39866;48.638;-2.020;2024-02-21T03:13:06;101841.94;;;15.80;100.00
53960;BME280;39866;48.638;-2.020;2024-02-21T03:15:31;101841.13;;;15.77;100.00
53960;BME280;39866;48.638;-2.020;2024-02-21T03:17:57;101823.56;;;15.67;100.00
53960;BME280;39866;48.638;-2.020;2024-02-21T03:20:22;101825.81;;;15.80;100.00
53960;BME280;39866;48.638;-2.020;2024-02-21T03:22:47;101833.19;;;15.74;100.00
53960;BME280;39866;48.638;-2.020;2024-02-21T03:25:13;101823.47;;;15.70;100.00
53960;BME280;39866;48.638;-2.020;2024-02-21T03:27:39;101829.63;;;15.73;100.00
53960;BME280;39866;48.638;-2.020;2024-02-21T03:30:05;101822.97;;;15.57;100.00
53960;BME280;39866;48.638;-2.020;2024-02-21T03:32:30;101826.38;;;15.62;100.00
53960;BME280;39866;48.638;-2.020;2024-02-21T03:34:56;101820.72;;;15.71;100.00
53960;BME280;39866;48.638;-2.020;2024-02-21T03:37:21;101828.03;;;15.68;100.00
53960;BME280;39866;48.638;-2.020;2024-02-21T03:39:46;101820.63;;;15.74;100.00
53960;BME280;39866;48.638;-2.020;2024-02-21T03:42:12;101812.78;;;15.68;100.00
53960;BME280;39866;48.638;-2.020;2024-02-21T03:44:37;101807.97;;;15.78;100.00
53960;BME280;39866;48.638;-2.020;2024-02-21T03:47:03;101799.31;;;15.70;100.00
53960;BME280;39866;48.638;-2.020;2024-02-21T03:49:28;101794.16;;;15.62;100.00
53960;BME280;39866;48.638;-2.020;2024-02-21T03:51:54;101794.88;;;15.69;100.00
53960;BME280;39866;48.638;-2.020;2024-02-21T03:54:19;101796.94;;;15.87;100.00
53960;BME280;39866;48.638;-2.020;2024-02-21T03:56:45;101788.06;;;15.85;100.00
53960;BME280;39866;48.638;-2.020;2024-02-21T03:59:12;101778.28;;;15.82;100.00
53960;BME280;39866;48.638;-2.020;2024-02-21T04:01:38;101780.09;;;15.82;100.00
53960;BME280;39866;48.638;-2.020;2024-02-21T04:04:03;101776.47;;;15.83;100.00
53960;BME280;39866;48.638;-2.020;2024-02-21T04:06:29;101780.16;;;15.80;100.00
53960;BME280;39866;48.638;-2.020;2024-02-21T04:08:54;101770.34;;;15.79;100.00
53960;BME280;39866;48.638;-2.020;2024-02-21T04:11:20;101751.69;;;15.75;100.00
53960;BME280;39866;48.638;-2.020;2024-02-21T04:13:45;101755.38;;;15.72;100.00
53960;BME280;39866;48.638;-2.020;2024-02-21T04:16:14;101735.31;;;15.82;100.00
53960;BME280;39866;48.638;-2.020;2024-02-21T04:18:39;101749.78;;;15.78;100.00
53960;BME280;39866;48.638;-2.020;2024-02-21T04:21:05;101741.47;;;15.86;100.00
53960;BME280;39866;48.638;-2.020;2024-02-21T04:23:30;101734.44;;;15.82;100.00
53960;BME280;39866;48.638;-2.020;2024-02-21T04:25:56;101735.16;;;15.87;100.00
53960;BME280;39866;48.638;-2.020;2024-02-21T04:28:21;101724.41;;;15.87;100.00
53960;BME280;39866;48.638;-2.020;2024-02-21T04:30:46;101729.09;;;15.82;100.00
53960;BME280;39866;48.638;-2.020;2024-02-21T04:33:12;101728.03;;;15.86;100.00
53960;BME280;39866;48.638;-2.020;2024-02-21T04:35:37;101709.56;;;15.77;100.00
53960;BME280;39866;48.638;-2.020;2024-02-21T04:38:03;101715.50;;;15.87;100.00
53960;BME280;39866;48.638;-2.020;2024-02-21T04:40:29;101704.03;;;15.81;100.00
53960;BME280;39866;48.638;-2.020;2024-02-21T04:42:54;101712.00;;;15.84;100.00
53960;BME280;39866;48.638;-2.020;2024-02-21T04:45:19;101700.41;;;15.82;100.00
53960;BME280;39866;48.638;-2.020;2024-02-21T04:47:45;101699.34;;;15.88;100.00
53960;BME280;39866;48.638;-2.020;2024-02-21T04:50:10;101693.03;;;15.89;100.00
53960;BME280;39866;48.638;-2.020;2024-02-21T04:52:36;101693.91;;;15.90;100.00
53960;BME280;39866;48.638;-2.020;2024-02-21T04:55:01;101687.31;;;15.73;100.00
53960;BME280;39866;48.638;-2.020;2024-02-21T04:57:26;101678.13;;;15.80;100.00
53960;BME280;39866;48.638;-2.020;2024-02-21T04:59:51;101676.31;;;15.81;100.00
53960;BME280;39866;48.638;-2.020;2024-02-21T05:02:17;101672.63;;;15.83;100.00
53960;BME280;39866;48.638;-2.020;2024-02-21T05:04:44;101665.31;;;15.89;100.00
53960;BME280;39866;48.638;-2.020;2024-02-21T05:07:10;101678.41;;;15.73;100.00
53960;BME280;39866;48.638;-2.020;2024-02-21T05:09:37;101669.22;;;15.78;100.00
53960;BME280;39866;48.638;-2.020;2024-02-21T05:12:02;101659.34;;;15.80;100.00
53960;BME280;39866;48.638;-2.020;2024-02-21T05:14:28;101655.91;;;15.75;100.00
53960;BME280;39866;48.638;-2.020;2024-02-21T05:16:53;101655.72;;;15.81;100.00
53960;BME280;39866;48.638;-2.020;2024-02-21T05:19:19;101656.47;;;15.85;100.00
53960;BME280;39866;48.638;-2.020;2024-02-21T05:21:44;101646.50;;;15.89;100.00
53960;BME280;39866;48.638;-2.020;2024-02-21T05:24:10;101631.31;;;15.88;100.00
53960;BME280;39866;48.638;-2.020;2024-02-21T05:26:35;101629.72;;;15.82;100.00
53960;BME280;39866;48.638;-2.020;2024-02-21T05:29:03;101626.97;;;15.83;100.00
53960;BME280;39866;48.638;-2.020;2024-02-21T05:34:20;101610.66;;;15.90;100.00
53960;BME280;39866;48.638;-2.020;2024-02-21T05:36:46;101604.59;;;15.84;100.00
53960;BME280;39866;48.638;-2.020;2024-02-21T05:39:11;101590.88;;;15.92;100.00
53960;BME280;39866;48.638;-2.020;2024-02-21T05:41:37;101594.66;;;15.87;100.00
53960;BME280;39866;48.638;-2.020;2024-02-21T05:44:02;101588.28;;;15.89;100.00
53960;BME280;39866;48.638;-2.020;2024-02-21T05:46:28;101585.06;;;15.79;100.00
53960;BME280;39866;48.638;-2.020;2024-02-21T05:48:53;101575.56;;;15.94;100.00
53960;BME280;39866;48.638;-2.020;2024-02-21T05:51:19;101579.81;;;15.76;100.00
53960;BME280;39866;48.638;-2.020;2024-02-21T05:53:44;101572.75;;;15.74;100.00
53960;BME280;39866;48.638;-2.020;2024-02-21T05:56:10;101568.25;;;15.74;100.00
53960;BME280;39866;48.638;-2.020;2024-02-21T05:58:36;101567.31;;;15.75;100.00
53960;BME280;39866;48.638;-2.020;2024-02-21T06:01:01;101563.28;;;15.87;100.00
53960;BME280;39866;48.638;-2.020;2024-02-21T06:03:28;101547.94;;;15.91;100.00
53960;BME280;39866;48.638;-2.020;2024-02-21T06:05:54;101537.09;;;15.94;100.00
53960;BME280;39866;48.638;-2.020;2024-02-21T06:08:19;101539.91;;;15.91;100.00
53960;BME280;39866;48.638;-2.020;2024-02-21T06:10:45;101523.56;;;15.73;100.00
53960;BME280;39866;48.638;-2.020;2024-02-21T06:13:10;101528.41;;;15.62;100.00
53960;BME280;39866;48.638;-2.020;2024-02-21T06:15:36;101524.78;;;15.63;100.00
53960;BME280;39866;48.638;-2.020;2024-02-21T06:18:01;101525.38;;;15.73;100.00
53960;BME280;39866;48.638;-2.020;2024-02-21T06:20:26;101514.03;;;15.65;100.00
53960;BME280;39866;48.638;-2.020;2024-02-21T06:22:52;101514.34;;;15.55;100.00
53960;BME280;39866;48.638;-2.020;2024-02-21T06:25:18;101499.28;;;15.76;100.00
53960;BME280;39866;48.638;-2.020;2024-02-21T06:27:43;101505.91;;;15.66;100.00
53960;BME280;39866;48.638;-2.020;2024-02-21T06:30:09;101483.03;;;15.79;100.00
53960;BME280;39866;48.638;-2.020;2024-02-21T06:32:34;101490.69;;;15.67;100.00
53960;BME280;39866;48.638;-2.020;2024-02-21T06:35:00;101479.03;;;15.68;100.00
53960;BME280;39866;48.638;-2.020;2024-02-21T06:37:27;101457.59;;;15.66;100.00
53960;BME280;39866;48.638;-2.020;2024-02-21T06:39:52;101452.16;;;15.44;100.00
53960;BME280;39866;48.638;-2.020;2024-02-21T06:42:17;101446.50;;;15.52;100.00
53960;BME280;39866;48.638;-2.020;2024-02-21T06:44:44;101443.91;;;15.49;100.00
53960;BME280;39866;48.638;-2.020;2024-02-21T06:47:09;101445.31;;;15.59;100.00
53960;BME280;39866;48.638;-2.020;2024-02-21T06:49:35;101443.22;;;15.44;100.00
53960;BME280;39866;48.638;-2.020;2024-02-21T06:52:03;101416.03;;;15.29;100.00
53960;BME280;39866;48.638;-2.020;2024-02-21T06:54:29;101423.44;;;15.46;100.00
53960;BME280;39866;48.638;-2.020;2024-02-21T06:56:54;101434.63;;;15.34;100.00
53960;BME280;39866;48.638;-2.020;2024-02-21T06:59:20;101435.50;;;15.34;100.00
53960;BME280;39866;48.638;-2.020;2024-02-21T07:01:48;101439.34;;;15.51;100.00
53960;BME280;39866;48.638;-2.020;2024-02-21T07:04:13;101412.88;;;15.42;100.00
53960;BME280;39866;48.638;-2.020;2024-02-21T07:06:39;101419.06;;;15.20;100.00
53960;BME280;39866;48.638;-2.020;2024-02-21T07:09:04;101406.06;;;15.33;100.00
53960;BME280;39866;48.638;-2.020;2024-02-21T07:11:29;101404.97;;;15.14;100.00
53960;BME280;39866;48.638;-2.020;2024-02-21T07:13:55;101402.09;;;15.20;100.00
53960;BME280;39866;48.638;-2.020;2024-02-21T07:16:20;101402.97;;;15.20;100.00
53960;BME280;39866;48.638;-2.020;2024-02-21T07:18:45;101395.72;;;15.22;100.00
53960;BME280;39866;48.638;-2.020;2024-02-21T07:21:11;101373.75;;;15.13;100.00
53960;BME280;39866;48.638;-2.020;2024-02-21T07:23:40;101376.34;;;15.14;100.00
53960;BME280;39866;48.638;-2.020;2024-02-21T07:26:06;101378.81;;;15.20;100.00
53960;BME280;39866;48.638;-2.020;2024-02-21T07:28:31;101368.09;;;15.20;100.00
53960;BME280;39866;48.638;-2.020;2024-02-21T07:30:59;101373.47;;;15.20;100.00
53960;BME280;39866;48.638;-2.020;2024-02-21T07:33:24;101381.56;;;15.19;100.00
53960;BME280;39866;48.638;-2.020;2024-02-21T07:35:49;101364.47;;;15.21;100.00
53960;BME280;39866;48.638;-2.020;2024-02-21T07:38:15;101361.38;;;15.08;100.00
53960;BME280;39866;48.638;-2.020;2024-02-21T07:40:44;101356.50;;;15.20;100.00
53960;BME280;39866;48.638;-2.020;2024-02-21T07:43:09;101365.88;;;15.31;100.00
53960;BME280;39866;48.638;-2.020;2024-02-21T07:45:35;101366.75;;;15.08;100.00
53960;BME280;39866;48.638;-2.020;2024-02-21T07:48:00;101379.00;;;15.16;100.00
53960;BME280;39866;48.638;-2.020;2024-02-21T07:50:26;101383.59;;;15.12;100.00
53960;BME280;39866;48.638;-2.020;2024-02-21T07:52:51;101370.84;;;15.19;100.00
53960;BME280;39866;48.638;-2.020;2024-02-21T07:55:16;101383.66;;;15.10;100.00
53960;BME280;39866;48.638;-2.020;2024-02-21T07:57:42;101400.16;;;15.00;100.00
53960;BME280;39866;48.638;-2.020;2024-02-21T08:00:07;101389.47;;;14.98;100.00
53960;BME280;39866;48.638;-2.020;2024-02-21T08:02:40;101389.31;;;15.03;100.00
53960;BME280;39866;48.638;-2.020;2024-02-21T08:05:07;101384.41;;;14.91;100.00
53960;BME280;39866;48.638;-2.020;2024-02-21T08:07:32;101369.00;;;14.96;100.00
53960;BME280;39866;48.638;-2.020;2024-02-21T08:09:58;101362.13;;;14.89;100.00
53960;BME280;39866;48.638;-2.020;2024-02-21T08:12:23;101362.53;;;15.01;100.00
53960;BME280;39866;48.638;-2.020;2024-02-21T08:14:48;101342.38;;;15.15;100.00
53960;BME280;39866;48.638;-2.020;2024-02-21T08:17:13;101338.13;;;15.09;100.00
53960;BME280;39866;48.638;-2.020;2024-02-21T08:19:39;101337.53;;;15.01;100.00
53960;BME280;39866;48.638;-2.020;2024-02-21T08:22:04;101330.31;;;15.03;100.00
53960;BME280;39866;48.638;-2.020;2024-02-21T08:24:29;101342.22;;;15.19;100.00
53960;BME280;39866;48.638;-2.020;2024-02-21T08:26:55;101327.28;;;15.12;100.00
53960;BME280;39866;48.638;-2.020;2024-02-21T08:29:20;101322.09;;;15.31;100.00
53960;BME280;39866;48.638;-2.020;2024-02-21T08:31:45;101317.88;;;15.24;100.00
53960;BME280;39866;48.638;-2.020;2024-02-21T08:34:11;101318.53;;;15.07;100.00
53960;BME280;39866;48.638;-2.020;2024-02-21T08:36:38;101301.25;;;15.14;100.00
53960;BME280;39866;48.638;-2.020;2024-02-21T08:39:03;101299.78;;;15.29;100.00
53960;BME280;39866;48.638;-2.020;2024-02-21T08:41:33;101295.13;;;15.34;100.00
53960;BME280;39866;48.638;-2.020;2024-02-21T08:43:59;101284.47;;;15.09;100.00
53960;BME280;39866;48.638;-2.020;2024-02-21T08:46:25;101271.47;;;15.22;100.00
53960;BME280;39866;48.638;-2.020;2024-02-21T08:48:51;101266.63;;;15.31;100.00
53960;BME280;39866;48.638;-2.020;2024-02-21T08:51:16;101236.22;;;15.09;100.00
53960;BME280;39866;48.638;-2.020;2024-02-21T08:53:42;101253.56;;;15.22;100.00
53960;BME280;39866;48.638;-2.020;2024-02-21T08:56:07;101233.97;;;15.20;100.00
53960;BME280;39866;48.638;-2.020;2024-02-21T08:58:33;101237.78;;;15.15;100.00
53960;BME280;39866;48.638;-2.020;2024-02-21T09:00:58;101212.25;;;15.26;100.00
53960;BME280;39866;48.638;-2.020;2024-02-21T09:03:24;101222.19;;;15.24;100.00
53960;BME280;39866;48.638;-2.020;2024-02-21T09:05:50;101199.19;;;15.19;100.00
53960;BME280;39866;48.638;-2.020;2024-02-21T09:08:15;101211.66;;;15.20;100.00
53960;BME280;39866;48.638;-2.020;2024-02-21T09:10:40;101192.25;;;15.13;100.00
53960;BME280;39866;48.638;-2.020;2024-02-21T09:13:06;101188.06;;;15.06;100.00
53960;BME280;39866;48.638;-2.020;2024-02-21T09:15:33;101192.56;;;15.27;100.00
53960;BME280;39866;48.638;-2.020;2024-02-21T09:17:59;101192.13;;;15.16;100.00
53960;BME280;39866;48.638;-2.020;2024-02-21T09:20:24;101179.09;;;15.07;100.00
53960;BME280;39866;48.638;-2.020;2024-02-21T09:22:50;101182.59;;;15.31;100.00
53960;BME280;39866;48.638;-2.020;2024-02-21T09:25:15;101194.69;;;15.19;100.00
53960;BME280;39866;48.638;-2.020;2024-02-21T09:27:40;101184.84;;;15.20;100.00
53960;BME280;39866;48.638;-2.020;2024-02-21T09:30:06;101160.38;;;15.05;100.00
53960;BME280;39866;48.638;-2.020;2024-02-21T09:32:32;101166.09;;;15.18;100.00
53960;BME280;39866;48.638;-2.020;2024-02-21T09:34:58;101163.72;;;15.32;100.00
53960;BME280;39866;48.638;-2.020;2024-02-21T09:37:23;101163.97;;;15.26;100.00
53960;BME280;39866;48.638;-2.020;2024-02-21T09:39:49;101155.44;;;15.17;100.00
53960;BME280;39866;48.638;-2.020;2024-02-21T09:42:20;101181.28;;;15.19;100.00
53960;BME280;39866;48.638;-2.020;2024-02-21T09:44:45;101155.22;;;15.23;100.00
53960;BME280;39866;48.638;-2.020;2024-02-21T09:49:43;101151.81;;;15.40;100.00
53960;BME280;39866;48.638;-2.020;2024-02-21T09:52:09;101134.81;;;15.19;100.00
53960;BME280;39866;48.638;-2.020;2024-02-21T09:54:37;101130.31;;;14.97;100.00
53960;BME280;39866;48.638;-2.020;2024-02-21T09:57:03;101138.88;;;15.07;100.00
53960;BME280;39866;48.638;-2.020;2024-02-21T09:59:32;101140.72;;;15.05;100.00
53960;BME280;39866;48.638;-2.020;2024-02-21T10:01:58;101136.47;;;15.21;100.00
53960;BME280;39866;48.638;-2.020;2024-02-21T10:04:27;101155.88;;;15.06;100.00
53960;BME280;39866;48.638;-2.020;2024-02-21T10:06:53;101146.84;;;15.08;100.00
53960;BME280;39866;48.638;-2.020;2024-02-21T10:09:27;101123.25;;;15.17;100.00
53960;BME280;39866;48.638;-2.020;2024-02-21T10:11:56;101125.28;;;15.11;100.00
53960;BME280;39866;48.638;-2.020;2024-02-21T10:14:21;101124.13;;;15.17;100.00
53960;BME280;39866;48.638;-2.020;2024-02-21T10:16:57;101104.25;;;15.01;100.00
53960;BME280;39866;48.638;-2.020;2024-02-21T10:19:25;101111.53;;;14.97;100.00
53960;BME280;39866;48.638;-2.020;2024-02-21T10:22:04;101109.63;;;15.01;100.00
53960;BME280;39866;48.638;-2.020;2024-02-21T10:24:33;101092.66;;;15.00;100.00
53960;BME280;39866;48.638;-2.020;2024-02-21T10:27:05;101090.09;;;15.19;100.00
53960;BME280;39866;48.638;-2.020;2024-02-21T10:29:34;101089.03;;;15.23;100.00
53960;BME280;39866;48.638;-2.020;2024-02-21T10:34:35;101106.03;;;15.22;100.00
53960;BME280;39866;48.638;-2.020;2024-02-21T10:37:02;101081.41;;;15.13;100.00
53960;BME280;39866;48.638;-2.020;2024-02-21T10:39:28;101073.81;;;15.02;100.00
53960;BME280;39866;48.638;-2.020;2024-02-21T10:41:56;101067.34;;;15.07;100.00
53960;BME280;39866;48.638;-2.020;2024-02-21T10:44:26;101071.34;;;15.18;100.00
53960;BME280;39866;48.638;-2.020;2024-02-21T10:46:52;101055.78;;;15.05;100.00
53960;BME280;39866;48.638;-2.020;2024-02-21T10:49:23;101058.97;;;15.15;100.00
53960;BME280;39866;48.638;-2.020;2024-02-21T10:54:46;101054.34;;;15.19;100.00
53960;BME280;39866;48.638;-2.020;2024-02-21T10:57:13;101067.34;;;15.07;100.00
53960;BME280;39866;48.638;-2.020;2024-02-21T10:59:39;101052.66;;;15.16;100.00
53960;BME280;39866;48.638;-2.020;2024-02-21T11:02:05;101043.44;;;15.23;100.00
53960;BME280;39866;48.638;-2.020;2024-02-21T11:04:32;101049.56;;;15.25;100.00
53960;BME280;39866;48.638;-2.020;2024-02-21T11:07:02;101031.22;;;15.16;100.00
53960;BME280;39866;48.638;-2.020;2024-02-21T11:09:33;101048.25;;;15.35;100.00
53960;BME280;39866;48.638;-2.020;2024-02-21T11:12:01;101061.34;;;15.23;100.00
53960;BME280;39866;48.638;-2.020;2024-02-21T11:14:27;101057.09;;;15.38;100.00
53960;BME280;39866;48.638;-2.020;2024-02-21T11:16:53;101057.28;;;15.33;100.00
53960;BME280;39866;48.638;-2.020;2024-02-21T11:19:23;101066.00;;;15.38;100.00
53960;BME280;39866;48.638;-2.020;2024-02-21T11:21:51;101065.97;;;15.40;100.00
53960;BME280;39866;48.638;-2.020;2024-02-21T11:26:56;101062.13;;;15.25;100.00
53960;BME280;39866;48.638;-2.020;2024-02-21T11:29:25;101048.09;;;15.18;100.00
53960;BME280;39866;48.638;-2.020;2024-02-21T11:31:51;101046.56;;;15.33;100.00
53960;BME280;39866;48.638;-2.020;2024-02-21T11:34:19;101016.72;;;15.20;100.00
53960;BME280;39866;48.638;-2.020;2024-02-21T11:36:49;100999.69;;;15.21;100.00
53960;BME280;39866;48.638;-2.020;2024-02-21T11:39:25;101026.19;;;15.29;100.00
53960;BME280;39866;48.638;-2.020;2024-02-21T11:42:03;100998.41;;;15.30;100.00
53960;BME280;39866;48.638;-2.020;2024-02-21T11:44:30;100998.75;;;15.22;100.00
53960;BME280;39866;48.638;-2.020;2024-02-21T11:46:55;100978.09;;;15.04;100.00
53960;BME280;39866;48.638;-2.020;2024-02-21T11:49:21;100989.44;;;14.90;100.00
53960;BME280;39866;48.638;-2.020;2024-02-21T11:51:46;100978.91;;;15.06;100.00
53960;BME280;39866;48.638;-2.020;2024-02-21T11:54:11;100965.34;;;14.89;100.00
53960;BME280;39866;48.638;-2.020;2024-02-21T11:56:41;100966.63;;;15.00;100.00
53960;BME280;39866;48.638;-2.020;2024-02-21T11:59:06;100944.56;;;14.94;100.00
53960;BME280;39866;48.638;-2.020;2024-02-21T12:01:32;100942.09;;;14.89;100.00
53960;BME280;39866;48.638;-2.020;2024-02-21T12:03:57;100927.25;;;14.82;100.00
53960;BME280;39866;48.638;-2.020;2024-02-21T12:06:23;100913.00;;;14.80;100.00
53960;BME280;39866;48.638;-2.020;2024-02-21T12:08:48;100929.03;;;14.81;100.00
53960;BME280;39866;48.638;-2.020;2024-02-21T12:11:22;100914.97;;;14.97;100.00
53960;BME280;39866;48.638;-2.020;2024-02-21T12:14:01;100907.19;;;14.70;100.00
53960;BME280;39866;48.638;-2.020;2024-02-21T12:16:28;100911.84;;;14.65;100.00
53960;BME280;39866;48.638;-2.020;2024-02-21T12:18:55;100907.19;;;14.70;100.00
53960;BME280;39866;48.638;-2.020;2024-02-21T12:21:24;100891.66;;;14.58;100.00
53960;BME280;39866;48.638;-2.020;2024-02-21T12:23:49;100870.78;;;14.65;100.00
53960;BME280;39866;48.638;-2.020;2024-02-21T12:26:14;100876.09;;;14.66;100.00
53960;BME280;39866;48.638;-2.020;2024-02-21T12:28:40;100875.91;;;14.50;100.00
53960;BME280;39866;48.638;-2.020;2024-02-21T12:31:05;100849.84;;;14.54;100.00
53960;BME280;39866;48.638;-2.020;2024-02-21T12:33:30;100856.38;;;14.47;100.00
53960;BME280;39866;48.638;-2.020;2024-02-21T12:35:56;100841.34;;;14.43;100.00
53960;BME280;39866;48.638;-2.020;2024-02-21T12:38:21;100854.88;;;14.40;100.00